Time;durP1;ratioP1;P1;durP2;ratioP2;P2;SDS_P1;SDS_P2;PMS_P1;PMS_P2;Temp;Humidity;BMP_temperature;BMP_pressure;BME280_temperature;BME280_humidity;BME280_pressure;Samples;Min_cycle;Max_cycle;Signal;HPM_P1;HPM_P2
2022/05/26 05:39:14;;;;;;;4.93;1.23;;;13.70;99.90;;;;;;6145378;23;20098;-88
2022/05/26 05:41:50;;;;;;;4.25;1.42;;;13.70;99.90;;;;;;6162711;23;20035;-86
2022/05/26 05:44:18;;;;;;;4.82;1.10;;;13.80;99.90;;;;;;6139397;23;20025;-84
2022/05/26 05:46:53;;;;;;;3.90;0.98;;;13.80;99.90;;;;;;6157597;23;20056;-85
2022/05/26 05:49:22;;;;;;;2.78;0.90;;;13.90;99.90;;;;;;6131512;23;20056;-89
2022/05/26 05:51:49;;;;;;;4.32;1.05;;;13.80;99.90;;;;;;6082847;23;20437;-87
2022/05/26 05:54:18;;;;;;;5.75;1.08;;;13.90;99.90;;;;;;6155529;23;20445;-86
2022/05/26 05:56:46;;;;;;;10.75;1.30;;;14.00;99.90;;;;;;6131200;23;20044;-85
2022/05/26 05:59:14;;;;;;;5.43;2.00;;;14.00;99.90;;;;;;6157450;23;20017;-86
2022/05/26 06:01:41;;;;;;;4.93;1.70;;;14.00;99.90;;;;;;6131251;23;20018;-86
2022/05/26 06:04:08;;;;;;;7.05;1.20;;;14.10;99.90;;;;;;6131417;23;20025;-87
2022/05/26 06:06:50;;;;;;;3.28;0.98;;;14.00;99.90;;;;;;6132007;23;20041;-91
2022/05/26 06:09:24;;;;;;;7.28;0.98;;;14.10;99.90;;;;;;6131504;23;20025;-91
2022/05/26 06:11:51;;;;;;;5.38;0.98;;;14.00;99.90;;;;;;6131768;23;20043;-91
2022/05/26 06:14:57;;;;;;;8.50;1.10;;;14.00;99.90;;;;;;6108083;23;20021;-90
2022/05/26 06:17:34;;;;;;;4.63;1.00;;;14.00;99.90;;;;;;6116509;23;20025;-92
2022/05/26 06:20:10;;;;;;;3.13;0.73;;;14.00;99.90;;;;;;6124373;23;20014;-93
2022/05/26 06:23:51;;;;;;;6.43;1.25;;;14.00;99.90;;;;;;6139863;23;20096;-94
2022/05/26 06:26:20;;;;;;;7.45;1.48;;;14.00;99.90;;;;;;6141728;23;20029;-91
2022/05/26 06:39:06;;;;;;;5.85;1.13;;;14.20;99.90;;;;;;6157206;23;20017;-91
2022/05/26 06:42:06;;;;;;;8.85;1.80;;;14.20;99.90;;;;;;6134328;23;20013;-93
2022/05/26 06:44:56;;;;;;;8.40;1.20;;;14.30;99.90;;;;;;6099740;23;20021;-91
2022/05/26 06:47:55;;;;;;;9.35;1.38;;;14.30;99.90;;;;;;6121230;23;20021;-92
2022/05/26 06:50:24;;;;;;;7.95;1.50;;;14.30;99.90;;;;;;6150060;23;20017;-91
2022/05/26 06:52:57;;;;;;;5.50;1.73;;;14.50;99.90;;;;;;6136730;23;20404;-90
2022/05/26 06:55:26;;;;;;;7.03;1.23;;;14.40;99.90;;;;;;6144108;23;20071;-89
2022/05/26 06:57:56;;;;;;;4.10;1.30;;;14.40;99.90;;;;;;6165380;23;20021;-89
2022/05/26 07:00:34;;;;;;;4.43;1.27;;;14.50;99.90;;;;;;6170002;23;20322;-91
2022/05/26 07:03:04;;;;;;;7.35;1.73;;;14.50;99.90;;;;;;6162499;23;20040;-91
2022/05/26 07:05:37;;;;;;;9.77;1.30;;;14.60;99.90;;;;;;6187025;23;20021;-91
2022/05/26 07:08:23;;;;;;;3.35;1.27;;;14.50;99.90;;;;;;6160545;23;20025;-90
2022/05/26 07:11:22;;;;;;;6.20;1.10;;;14.50;99.90;;;;;;6160528;23;20023;-91
2022/05/26 07:14:11;;;;;;;7.28;1.52;;;14.60;99.90;;;;;;6161312;23;20021;-92
2022/05/26 07:17:04;;;;;;;5.78;1.50;;;14.50;99.90;;;;;;6160360;23;20017;-90
2022/05/26 08:48:05;;;;;;;12.57;1.63;;;14.90;99.90;;;;;;6242612;22;20024;-92
2022/05/26 08:50:35;;;;;;;8.52;1.80;;;14.90;99.90;;;;;;6223116;23;20015;-90
2022/05/26 08:53:10;;;;;;;8.93;1.85;;;15.00;99.90;;;;;;6192822;23;20025;-92
2022/05/26 08:59:47;;;;;;;5.20;1.48;;;15.00;99.90;;;;;;6100151;23;20021;-91
2022/05/26 09:02:28;;;;;;;9.00;1.83;;;15.00;99.90;;;;;;6244300;23;20001;-89
2022/05/26 09:04:59;;;;;;;7.85;2.20;;;15.00;99.90;;;;;;6244371;22;20020;-88
2022/05/26 09:17:38;;;;;;;7.43;2.50;;;15.00;99.90;;;;;;6210421;23;20031;-92
2022/05/26 09:21:08;;;;;;;7.07;1.65;;;15.10;99.90;;;;;;6212266;23;20054;-91
2022/05/26 09:23:47;;;;;;;9.32;1.70;;;15.20;99.90;;;;;;6185770;23;20345;-91
2022/05/26 09:26:43;;;;;;;4.93;1.55;;;15.20;99.90;;;;;;6167305;23;20020;-91
2022/05/26 09:29:27;;;;;;;4.78;1.85;;;15.10;99.90;;;;;;6191184;23;20451;-92
2022/05/26 09:31:58;;;;;;;8.50;1.65;;;15.20;99.90;;;;;;6166403;23;20030;-92
2022/05/26 09:35:06;;;;;;;11.18;2.20;;;15.40;99.90;;;;;;6190853;23;20065;-90
2022/05/26 09:37:42;;;;;;;4.97;1.30;;;15.40;99.90;;;;;;6166038;23;20024;-91
2022/05/26 09:40:26;;;;;;;11.52;1.50;;;15.40;99.90;;;;;;6190672;23;20448;-91
2022/05/26 09:43:02;;;;;;;10.98;2.00;;;15.50;99.90;;;;;;6191667;23;20408;-91
2022/05/26 09:46:09;;;;;;;12.57;2.35;;;15.50;99.90;;;;;;6192310;23;20441;-92
2022/05/26 09:48:45;;;;;;;8.73;1.90;;;15.60;99.90;;;;;;6215219;23;20024;-92
2022/05/26 09:51:26;;;;;;;3.60;1.27;;;15.70;99.90;;;;;;6190890;23;20017;-91
2022/05/26 09:54:01;;;;;;;18.50;1.60;;;15.70;97.30;;;;;;6165230;23;20016;-92
2022/05/26 12:26:47;;;;;;;9.27;2.00;;;18.20;1.00;;;;;;6068736;23;20023;-92
2022/05/26 12:34:06;;;;;;;5.78;2.38;;;18.30;1.00;;;;;;6098945;22;20036;-92
2022/05/26 12:37:20;;;;;;;15.30;2.72;;;18.40;1.00;;;;;;6200230;23;20020;-92
2022/05/26 13:59:23;;;;;;;8.93;2.60;;;18.80;1.00;;;;;;6156932;23;20025;-84
2022/05/26 14:08:58;;;;;;;9.13;2.30;;;18.80;1.00;;;;;;6242126;22;20439;-90
2022/05/26 14:33:22;;;;;;;15.30;3.40;;;19.10;1.00;;;;;;6202439;22;20462;-91
2022/05/26 14:41:37;;;;;;;9.77;1.70;;;19.00;1.00;;;;;;6235067;22;20134;-94
